Time;durP1;ratioP1;P1;durP2;ratioP2;P2;SDS_P1;SDS_P2;PMS_P1;PMS_P2;Temp;Humidity;BMP_temperature;BMP_pressure;BME280_temperature;BME280_humidity;BME280_pressure;Samples;Min_cycle;Max_cycle;Signal;HPM_P1;HPM_P2
2022/04/22 00:01:53;;;;;;;14.43;7.03;;;;;;;11.46;80.45;100984.16;10370596;28;20030;-74
2022/04/22 00:06:53;;;;;;;9.88;5.60;;;;;;;11.33;81.42;100987.66;10354301;28;20536;-73
2022/04/22 00:11:54;;;;;;;6.10;5.50;;;;;;;11.36;81.22;100991.84;10371173;28;20030;-73
2022/04/22 00:16:54;;;;;;;6.88;4.85;;;;;;;11.35;80.96;100990.97;10370548;28;20033;-73
2022/04/22 00:21:54;;;;;;;6.65;4.38;;;;;;;11.37;80.53;100994.34;10369777;28;20454;-73
2022/04/22 00:26:55;;;;;;;6.30;4.20;;;;;;;11.32;80.68;100990.53;10387896;28;20133;-73
2022/04/22 00:31:55;;;;;;;5.45;4.38;;;;;;;11.16;80.75;100994.41;10388253;28;20034;-73
2022/04/22 00:36:56;;;;;;;9.13;6.00;;;;;;;11.14;80.98;100991.09;10386680;28;20077;-73
2022/04/22 00:41:56;;;;;;;5.00;4.50;;;;;;;11.08;80.94;100997.28;10370050;28;20038;-73
2022/04/22 00:46:57;;;;;;;9.45;5.15;;;;;;;11.01;80.99;100997.25;10386916;28;20478;-73
2022/04/22 00:51:57;;;;;;;7.05;4.85;;;;;;;10.91;81.41;100989.47;10387362;28;20072;-73
2022/04/22 00:56:57;;;;;;;3.83;3.45;;;;;;;10.88;81.56;100989.88;10370816;28;20074;-73
2022/04/22 01:01:58;;;;;;;6.07;5.40;;;;;;;10.79;81.58;100974.78;10385435;28;20453;-73
2022/04/22 01:12:18;;;;;;;8.00;4.50;;;;;;;10.66;81.93;100966.56;10380250;28;20034;-73
2022/04/22 01:17:19;;;;;;;6.95;4.85;;;;;;;10.57;82.80;100974.00;10362720;28;20038;-73
2022/04/22 01:22:19;;;;;;;4.07;3.50;;;;;;;10.51;82.39;100966.66;10380206;28;20112;-72
2022/04/22 01:27:20;;;;;;;4.63;4.22;;;;;;;10.43;82.78;100962.22;10363518;28;20186;-73
2022/04/22 01:32:20;;;;;;;6.53;5.63;;;;;;;10.39;82.88;100960.09;10379051;28;20062;-73
2022/04/22 01:37:21;;;;;;;6.10;5.15;;;;;;;10.28;83.66;100964.16;10379390;28;20058;-73
2022/04/22 01:42:21;;;;;;;6.22;5.63;;;;;;;10.22;84.22;100960.31;10379994;28;20519;-73
2022/04/22 01:47:21;;;;;;;11.13;5.47;;;;;;;10.17;84.92;100964.63;10379374;28;20041;-73
2022/04/22 01:52:22;;;;;;;9.55;5.80;;;;;;;10.09;84.92;100967.47;10379551;28;20030;-73
2022/04/22 01:57:23;;;;;;;6.80;5.60;;;;;;;10.02;85.79;100970.13;10361935;28;20022;-73
2022/04/22 02:02:23;;;;;;;6.90;5.93;;;;;;;9.94;85.93;100954.81;10379819;28;20034;-73
2022/04/22 02:07:23;;;;;;;9.18;5.85;;;;;;;9.85;86.44;100947.03;10378696;28;20394;-73
2022/04/22 02:12:24;;;;;;;10.80;6.35;;;;;;;9.82;86.91;100940.13;10378678;28;20030;-73
2022/04/22 02:17:25;;;;;;;6.38;5.40;;;;;;;9.73;87.64;100947.53;10377408;28;20088;-73
2022/04/22 02:22:25;;;;;;;5.88;5.25;;;;;;;9.78;88.01;100936.97;10378019;28;20382;-73
2022/04/22 02:32:44;;;;;;;9.63;6.22;;;;;;;9.77;88.26;100927.19;10377583;28;20026;-73
2022/04/22 02:37:45;;;;;;;7.05;5.60;;;;;;;9.74;88.01;100924.03;10376224;28;20054;-73
2022/04/22 02:48:04;;;;;;;20.38;8.30;;;;;;;9.64;89.17;100934.34;10376812;28;20045;-73
2022/04/22 02:53:05;;;;;;;11.68;8.57;;;;;;;9.66;89.15;100918.75;10376898;28;20041;-73
2022/04/22 02:58:06;;;;;;;12.70;6.53;;;;;;;9.62;89.53;100914.75;10376475;28;20034;-73
2022/04/22 03:03:06;;;;;;;9.23;7.60;;;;;;;9.64;89.25;100910.00;10375206;28;20390;-73
2022/04/22 03:08:08;;;;;;;8.05;6.28;;;;;;;9.57;90.16;100911.78;10377251;28;20042;-73
2022/04/22 03:13:09;;;;;;;11.57;7.07;;;;;;;9.49;90.44;100915.44;10357989;28;20050;-73
2022/04/22 03:18:09;;;;;;;8.00;5.35;;;;;;;9.39;91.16;100914.91;10358354;28;20037;-73
2022/04/22 03:23:09;;;;;;;8.98;7.00;;;;;;;9.33;92.18;100913.78;10375744;28;20038;-74
2022/04/22 03:28:10;;;;;;;11.25;6.30;;;;;;;9.30;93.80;100906.06;10374734;28;20498;-74
2022/04/22 03:33:10;;;;;;;8.35;7.57;;;;;;;9.32;94.78;100902.16;10375529;28;20088;-73
2022/04/22 03:38:11;;;;;;;16.30;8.18;;;;;;;9.23;97.02;100895.16;10358120;28;20092;-73
2022/04/22 03:43:11;;;;;;;6.60;5.20;;;;;;;9.27;96.50;100892.94;10373351;28;20030;-72
2022/04/22 03:48:13;;;;;;;9.80;7.18;;;;;;;9.25;98.61;100895.84;10357575;28;20033;-72
2022/04/22 03:53:14;;;;;;;12.43;7.05;;;;;;;9.21;100.00;100889.09;10376631;28;20042;-73
2022/04/22 03:58:16;;;;;;;7.38;6.13;;;;;;;9.26;99.16;100894.78;10376057;28;20038;-73
2022/04/22 04:03:20;;;;;;;6.63;6.03;;;;;;;9.19;100.00;100890.31;10357389;28;20474;-73
2022/04/22 04:08:22;;;;;;;9.50;6.18;;;;;;;9.20;100.00;100897.41;10373906;28;20096;-73
2022/04/22 04:18:41;;;;;;;13.68;7.43;;;;;;;9.14;100.00;100893.59;10374365;28;20033;-73
2022/04/22 04:23:42;;;;;;;8.73;7.75;;;;;;;9.16;100.00;100896.97;10375944;28;20037;-73
2022/04/22 04:28:44;;;;;;;12.32;8.13;;;;;;;9.17;100.00;100903.19;10308885;28;20498;-72
2022/04/22 04:33:45;;;;;;;10.93;7.95;;;;;;;9.20;100.00;100900.94;10375120;28;20030;-74
2022/04/22 04:38:45;;;;;;;10.32;8.00;;;;;;;9.15;100.00;100895.25;10375483;28;20084;-74
2022/04/22 04:43:46;;;;;;;9.02;8.13;;;;;;;9.17;100.00;100898.63;10379022;28;20169;-74
2022/04/22 04:48:46;;;;;;;8.07;6.90;;;;;;;9.13;100.00;100908.13;10382305;28;20057;-75
2022/04/22 04:53:47;;;;;;;10.30;9.05;;;;;;;9.14;100.00;100920.59;10381614;28;20386;-74
2022/04/22 04:58:47;;;;;;;11.60;6.88;;;;;;;9.15;100.00;100916.03;10380220;28;20041;-74
2022/04/22 05:03:47;;;;;;;9.32;8.18;;;;;;;9.15;100.00;100899.84;10379746;28;20056;-73
2022/04/22 05:08:48;;;;;;;10.52;9.13;;;;;;;9.21;100.00;100899.09;10364942;28;20033;-75
2022/04/22 05:13:48;;;;;;;15.13;8.80;;;;;;;9.31;100.00;100899.63;10382306;28;20042;-74
2022/04/22 05:18:49;;;;;;;17.58;9.45;;;;;;;9.59;100.00;100901.63;10381717;28;20038;-74
2022/04/22 05:23:50;;;;;;;9.40;7.38;;;;;;;9.85;100.00;100904.59;10379897;28;20429;-74
2022/04/22 05:28:50;;;;;;;9.48;8.25;;;;;;;9.73;100.00;100904.28;10379688;28;20076;-73
2022/04/22 05:33:54;;;;;;;12.57;7.57;;;;;;;9.72;100.00;100901.75;10380514;28;20080;-74
2022/04/22 05:38:56;;;;;;;9.82;8.82;;;;;;;9.75;100.00;100894.09;10378314;28;20066;-74
2022/04/22 05:43:56;;;;;;;9.80;8.70;;;;;;;10.77;95.11;100895.59;10361267;28;20062;-74
2022/04/22 05:48:56;;;;;;;12.05;8.35;;;;;;;11.26;91.49;100910.84;10380416;28;20485;-74
2022/04/22 05:53:57;;;;;;;12.38;7.68;;;;;;;11.75;89.24;100908.94;10363541;28;20453;-74
2022/04/22 05:58:59;;;;;;;8.67;7.77;;;;;;;12.12;86.54;100904.84;10361917;28;20029;-75
2022/04/22 06:03:59;;;;;;;9.82;7.22;;;;;;;12.79;84.12;100905.66;10361043;28;20260;-74
2022/04/22 06:14:19;;;;;;;11.15;7.25;;;;;;;12.85;82.22;100912.94;10378217;28;20069;-74
2022/04/22 06:19:19;;;;;;;8.90;7.95;;;;;;;12.94;81.84;100889.09;10379275;28;20069;-74
2022/04/22 06:24:19;;;;;;;9.07;8.00;;;;;;;13.05;80.97;100891.19;10378707;28;20041;-74
2022/04/22 06:29:20;;;;;;;12.85;7.93;;;;;;;13.29;80.01;100889.66;10377700;28;20041;-74
2022/04/22 06:34:20;;;;;;;12.75;8.80;;;;;;;13.47;78.89;100887.06;10376899;28;20362;-75
2022/04/22 06:39:21;;;;;;;13.88;9.18;;;;;;;13.71;78.17;100890.88;10377115;28;20042;-74
2022/04/22 06:45:46;;;;;;;13.23;7.43;;;;;;;13.80;76.73;100879.75;10359354;28;20041;-75
2022/04/22 06:49:48;;;;;;;12.43;8.30;;;;;;;14.12;75.76;100878.66;10375646;28;20041;-74
2022/04/22 06:54:48;;;;;;;11.23;9.25;;;;;;;14.45;73.98;100884.91;10376536;28;20466;-74
2022/04/22 06:59:49;;;;;;;13.15;9.95;;;;;;;14.42;74.34;100878.84;10376487;28;20096;-74
2022/04/22 07:04:51;;;;;;;9.60;8.48;;;;;;;14.92;72.05;100888.03;10378688;28;20045;-75
2022/04/22 07:09:51;;;;;;;12.13;8.95;;;;;;;15.21;71.16;100881.81;10377348;28;20030;-74
2022/04/22 07:14:52;;;;;;;10.18;8.93;;;;;;;15.37;69.59;100876.78;10378775;28;20045;-75
2022/04/22 07:19:52;;;;;;;11.95;9.82;;;;;;;15.50;69.98;100877.44;10359510;28;20488;-74
2022/04/22 07:24:54;;;;;;;37.10;9.95;;;;;;;15.48;68.62;100882.31;10379748;28;20461;-75
2022/04/22 07:29:55;;;;;;;11.38;9.77;;;;;;;15.28;69.25;100860.75;10384095;28;20034;-74
2022/04/22 07:34:55;;;;;;;19.08;9.70;;;;;;;15.25;69.66;100866.66;10363831;28;20056;-74
2022/04/22 07:39:56;;;;;;;12.48;10.25;;;;;;;15.75;68.52;100865.59;10379355;28;20069;-75
2022/04/22 07:50:17;;;;;;;13.13;11.60;;;;;;;15.70;67.27;100868.19;10379418;28;20038;-75
2022/04/22 07:55:18;;;;;;;17.02;10.43;;;;;;;16.16;66.44;100872.09;10379812;28;20117;-75
2022/04/22 08:00:18;;;;;;;10.98;9.07;;;;;;;16.54;64.44;100862.63;10373001;28;20057;-74
2022/04/22 08:05:19;;;;;;;12.20;8.75;;;;;;;16.32;64.49;100856.91;10397805;28;20034;-74
2022/04/22 08:10:19;;;;;;;13.90;9.95;;;;;;;16.27;64.31;100869.41;10390358;28;20382;-75
2022/04/22 08:15:20;;;;;;;10.57;9.30;;;;;;;16.32;64.92;100852.28;10367782;28;20073;-75
2022/04/22 08:20:20;;;;;;;11.00;9.32;;;;;;;16.81;62.97;100858.34;10388785;28;20030;-75
2022/04/22 08:25:21;;;;;;;12.27;10.07;;;;;;;17.47;61.12;100855.31;10388541;28;20033;-75
2022/04/22 08:30:21;;;;;;;11.18;9.98;;;;;;;17.40;60.06;100858.22;10393375;28;20542;-75
2022/04/22 08:35:21;;;;;;;9.25;8.27;;;;;;;17.70;58.76;100847.00;10390925;28;20061;-75
2022/04/22 08:40:22;;;;;;;10.63;8.75;;;;;;;18.34;56.16;100835.75;10375563;28;20042;-75
2022/04/22 08:45:25;;;;;;;15.57;7.72;;;;;;;18.13;57.60;100834.63;10393731;28;20034;-75
2022/04/22 08:50:26;;;;;;;13.20;9.27;;;;;;;18.49;54.21;100824.22;10396980;28;20030;-75
2022/04/22 08:55:27;;;;;;;10.15;8.75;;;;;;;18.63;53.78;100830.97;10391212;28;20045;-75
2022/04/22 09:00:28;;;;;;;19.60;10.18;;;;;;;18.79;54.24;100819.19;10361625;28;20041;-75
2022/04/22 09:05:34;;;;;;;22.02;10.15;;;;;;;17.09;58.05;100818.44;10374705;28;20080;-75
2022/04/22 09:10:38;;;;;;;13.32;9.30;;;;;;;16.83;59.41;100812.44;10387348;28;20034;-75
2022/04/22 09:15:39;;;;;;;12.05;8.95;;;;;;;17.97;55.67;100802.56;10373419;28;20034;-75
2022/04/22 09:20:40;;;;;;;10.85;8.70;;;;;;;17.69;57.03;100796.03;10358072;28;20042;-75
2022/04/22 09:25:41;;;;;;;11.02;8.82;;;;;;;16.71;57.95;100787.81;10388153;28;20397;-75
2022/04/22 09:30:41;;;;;;;10.75;9.10;;;;;;;17.75;55.24;100786.00;10383811;28;20042;-75
2022/04/22 09:46:30;;;;;;;7.88;6.82;;;;;;;17.14;57.39;100775.63;10387269;28;20042;-75
2022/04/22 09:51:30;;;;;;;12.82;9.70;;;;;;;17.77;54.67;100761.97;10385654;28;20030;-75
2022/04/22 09:56:32;;;;;;;12.20;7.50;;;;;;;18.53;52.99;100751.31;10385822;28;20068;-76
2022/04/22 10:01:32;;;;;;;9.45;7.05;;;;;;;19.58;49.48;100753.88;10353370;28;20037;-75
2022/04/22 10:06:32;;;;;;;9.20;7.85;;;;;;;19.27;49.22;100759.94;10371397;28;20038;-76
2022/04/22 10:11:33;;;;;;;8.88;7.97;;;;;;;19.89;49.15;100736.59;10388913;28;20363;-75
2022/04/22 10:16:33;;;;;;;10.23;8.65;;;;;;;19.89;47.92;100733.03;10366503;28;20085;-75
2022/04/22 10:21:34;;;;;;;12.93;5.72;;;;;;;18.54;50.71;100720.09;10384204;28;20423;-75
2022/04/22 10:26:34;;;;;;;10.43;8.77;;;;;;;18.69;50.06;100731.22;10364656;28;20418;-75
2022/04/22 10:31:35;;;;;;;10.27;7.05;;;;;;;18.48;50.68;100737.56;10381580;28;20037;-75
2022/04/22 10:36:36;;;;;;;9.60;8.13;;;;;;;19.41;49.70;100732.03;10347601;28;20112;-75
2022/04/22 10:41:46;;;;;;;8.00;7.20;;;;;;;17.87;50.91;100730.09;10381778;28;20379;-75
2022/04/22 10:52:17;;;;;;;9.07;6.90;;;;;;;20.17;47.13;100729.91;10367339;28;20034;-75
2022/04/22 10:57:18;;;;;;;8.40;6.75;;;;;;;19.56;47.70;100721.19;10382408;28;20034;-76
2022/04/22 11:02:31;;;;;;;9.70;6.50;;;;;;;19.02;48.11;100705.59;10363844;28;20041;-74
2022/04/22 11:07:50;;;;;;;8.35;6.43;;;;;;;19.03;48.94;100701.75;10379255;28;20465;-75
2022/04/22 11:12:54;;;;;;;6.88;5.57;;;;;;;18.83;49.50;100700.72;10380096;28;20041;-75
2022/04/22 11:17:55;;;;;;;8.60;5.70;;;;;;;18.53;49.59;100702.78;10378278;28;20034;-74
2022/04/22 11:22:58;;;;;;;14.73;5.82;;;;;;;17.27;52.85;100705.25;10331940;28;20034;-74
2022/04/22 11:27:59;;;;;;;11.32;6.68;;;;;;;17.07;54.53;100702.94;10369709;28;20363;-75
2022/04/22 11:33:22;;;;;;;6.43;5.82;;;;;;;17.83;52.74;100693.31;10363690;28;20077;-75
2022/04/22 11:38:23;;;;;;;7.07;6.45;;;;;;;18.28;51.08;100691.47;10365262;28;20482;-75
2022/04/22 11:43:23;;;;;;;6.78;6.18;;;;;;;17.76;53.06;100686.31;10381678;28;20030;-75
2022/04/22 11:48:24;;;;;;;9.73;6.25;;;;;;;17.56;52.85;100693.13;10378954;28;20042;-75
2022/04/22 11:53:34;;;;;;;6.82;5.88;;;;;;;17.01;55.97;100690.28;10379334;28;20042;-75
2022/04/22 11:58:34;;;;;;;8.27;7.05;;;;;;;18.61;49.18;100690.53;10379597;28;20034;-75
2022/04/22 12:09:03;;;;;;;9.20;5.88;;;;;;;16.78;54.02;100693.91;10379407;28;20026;-75
2022/04/22 12:14:03;;;;;;;10.20;5.80;;;;;;;17.69;52.21;100683.75;10361377;28;20030;-75
2022/04/22 12:19:06;;;;;;;6.22;5.63;;;;;;;17.29;51.53;100667.50;10378967;28;20394;-76
2022/04/22 12:24:06;;;;;;;7.55;5.85;;;;;;;16.80;54.75;100684.41;10377095;28;20120;-75
2022/04/22 12:29:11;;;;;;;6.20;5.35;;;;;;;16.63;55.19;100680.75;10361184;28;20497;-75
2022/04/22 12:34:13;;;;;;;21.05;6.07;;;;;;;16.40;55.39;100667.97;10376244;28;20116;-75
2022/04/22 12:39:40;;;;;;;8.38;7.25;;;;;;;16.55;55.19;100660.09;10342539;28;20078;-76
2022/04/22 12:44:40;;;;;;;11.35;6.35;;;;;;;17.58;52.33;100660.03;10377167;28;20053;-75
2022/04/22 12:55:19;;;;;;;6.13;5.50;;;;;;;16.87;50.23;100654.16;10294352;28;20039;-74
2022/04/22 13:00:20;;;;;;;7.50;5.38;;;;;;;16.93;51.21;100644.97;10356683;28;20057;-74
2022/04/22 13:05:22;;;;;;;4.63;4.22;;;;;;;17.40;49.18;100636.50;10352694;28;20121;-75
2022/04/22 13:10:22;;;;;;;5.20;3.95;;;;;;;17.04;48.41;100648.72;10382328;28;20455;-75
2022/04/22 13:15:23;;;;;;;6.40;4.53;;;;;;;16.72;48.80;100635.56;10366181;28;20129;-74
2022/04/22 13:20:23;;;;;;;7.65;4.68;;;;;;;16.91;49.05;100627.97;10367343;28;20034;-75
2022/04/22 13:25:24;;;;;;;5.88;3.63;;;;;;;17.21;47.49;100616.75;10369759;28;20400;-75
2022/04/22 13:30:25;;;;;;;7.68;4.15;;;;;;;17.33;45.98;100635.84;10392006;28;20042;-75
2022/04/22 13:35:25;;;;;;;3.78;2.88;;;;;;;17.28;45.01;100611.09;10384986;28;20441;-75
2022/04/22 13:40:26;;;;;;;7.93;3.50;;;;;;;17.18;45.39;100607.13;10383124;28;20075;-75
2022/04/22 13:56:05;;;;;;;3.92;3.63;;;;;;;17.81;43.48;100593.31;10382894;28;20034;-75
2022/04/22 14:01:05;;;;;;;5.65;3.40;;;;;;;17.81;42.74;100585.09;10391557;28;20034;-75
2022/04/22 14:06:06;;;;;;;9.15;3.42;;;;;;;17.83;43.18;100583.75;10385505;28;20026;-75
2022/04/22 14:11:08;;;;;;;3.25;2.78;;;;;;;17.76;43.98;100580.34;10382282;28;20033;-75
2022/04/22 14:16:08;;;;;;;4.05;3.03;;;;;;;17.70;43.90;100575.88;10384863;28;20409;-75
2022/04/22 14:21:09;;;;;;;7.75;2.88;;;;;;;17.86;43.50;100572.28;10384411;28;20034;-75
2022/04/22 14:26:12;;;;;;;4.30;3.28;;;;;;;17.81;43.80;100555.81;10383572;28;20038;-75
2022/04/22 14:31:12;;;;;;;4.05;3.38;;;;;;;17.72;43.92;100554.53;10385970;28;20496;-75
2022/04/22 14:36:13;;;;;;;4.47;3.58;;;;;;;17.70;44.47;100543.00;10371963;28;20054;-76
2022/04/22 14:41:17;;;;;;;5.50;2.92;;;;;;;17.74;43.28;100548.81;10385617;28;20069;-75
2022/04/22 14:46:18;;;;;;;3.70;3.30;;;;;;;17.60;44.27;100551.09;10370152;28;20041;-75
2022/04/22 14:51:18;;;;;;;3.75;2.63;;;;;;;17.49;43.91;100546.56;10384030;28;20030;-75
2022/04/22 14:56:20;;;;;;;4.20;2.42;;;;;;;17.57;44.09;100543.38;10382819;28;20045;-75
2022/04/22 15:01:20;;;;;;;4.85;2.92;;;;;;;17.58;43.68;100539.56;10372255;28;20034;-75
2022/04/22 15:06:21;;;;;;;2.78;2.67;;;;;;;17.58;42.71;100537.66;10382313;28;20089;-75
2022/04/22 15:11:21;;;;;;;6.72;3.05;;;;;;;17.55;42.93;100534.56;10383033;28;20033;-75
2022/04/22 15:16:25;;;;;;;4.32;3.38;;;;;;;17.72;42.75;100535.38;10366995;28;20091;-75
2022/04/22 15:26:44;;;;;;;3.17;2.88;;;;;;;17.56;43.75;100528.88;10380091;28;20374;-75
2022/04/22 15:31:45;;;;;;;7.88;3.83;;;;;;;17.42;43.44;100527.56;10380731;28;20058;-76
2022/04/22 15:36:46;;;;;;;2.75;2.55;;;;;;;17.15;44.67;100524.72;10362489;28;20042;-75
2022/04/22 15:41:46;;;;;;;4.97;3.47;;;;;;;17.05;45.70;100525.38;10360663;28;20105;-75
2022/04/22 15:46:47;;;;;;;3.53;2.58;;;;;;;16.92;44.71;100532.00;10379125;28;20150;-75
2022/04/22 15:51:47;;;;;;;8.55;2.80;;;;;;;16.92;44.46;100539.41;10379386;28;20029;-75
2022/04/22 15:56:48;;;;;;;5.43;3.00;;;;;;;16.88;44.62;100524.53;10380584;28;20038;-75
2022/04/22 16:01:51;;;;;;;2.00;1.85;;;;;;;16.90;44.58;100528.69;10366694;28;20081;-74
2022/04/22 16:06:52;;;;;;;4.82;2.17;;;;;;;16.92;44.31;100523.81;10378761;28;20457;-75
2022/04/22 16:17:11;;;;;;;2.80;2.17;;;;;;;16.84;45.57;100526.13;10377678;28;20038;-75
2022/04/22 16:22:13;;;;;;;2.88;2.63;;;;;;;16.80;45.87;100524.97;10380896;28;20046;-75
2022/04/22 16:27:13;;;;;;;2.42;2.17;;;;;;;16.77;46.08;100534.50;10378385;28;20044;-75
2022/04/22 16:32:13;;;;;;;3.65;2.88;;;;;;;16.79;46.17;100526.88;10361649;28;20052;-75
2022/04/22 16:37:14;;;;;;;2.88;2.67;;;;;;;16.77;45.99;100534.50;10366238;28;20449;-75
2022/04/22 16:42:14;;;;;;;6.18;3.38;;;;;;;16.58;46.91;100524.81;10366907;28;20049;-75
2022/04/22 16:47:15;;;;;;;4.28;3.20;;;;;;;16.45;47.28;100526.78;10367887;28;20434;-75
2022/04/22 16:52:15;;;;;;;4.15;3.15;;;;;;;16.43;47.64;100539.03;10365416;28;20033;-74
2022/04/22 16:57:15;;;;;;;5.25;3.00;;;;;;;16.36;48.31;100533.72;10366993;28;20052;-75
2022/04/22 17:02:17;;;;;;;4.38;3.80;;;;;;;16.34;49.00;100527.69;10367889;28;20046;-75
2022/04/22 17:07:18;;;;;;;2.78;2.58;;;;;;;16.24;50.31;100541.13;10381625;28;20084;-75
2022/04/22 17:12:18;;;;;;;7.07;3.33;;;;;;;16.14;49.76;100539.03;10381762;28;20113;-75
2022/04/22 17:22:40;;;;;;;4.97;4.40;;;;;;;16.07;50.54;100532.91;10382800;28;20116;-75
2022/04/22 17:27:42;;;;;;;3.60;3.25;;;;;;;16.14;51.20;100535.47;10381459;28;20041;-75
2022/04/22 17:32:42;;;;;;;3.47;3.17;;;;;;;16.07;51.99;100540.25;10367014;28;20044;-75
2022/04/22 17:37:43;;;;;;;4.63;4.22;;;;;;;16.04;52.33;100528.75;10386015;28;20050;-75
2022/04/22 17:42:44;;;;;;;4.60;4.20;;;;;;;16.03;53.02;100540.75;10369978;28;20056;-74
2022/04/22 17:47:45;;;;;;;4.82;4.35;;;;;;;15.94;53.97;100538.63;10382650;28;20038;-75
2022/04/22 17:52:45;;;;;;;3.80;3.40;;;;;;;15.83;54.61;100534.06;10381963;28;20089;-75
2022/04/22 17:57:47;;;;;;;5.43;3.38;;;;;;;15.79;55.05;100545.47;10382106;28;20042;-75
2022/04/22 18:02:48;;;;;;;6.65;4.53;;;;;;;15.72;55.20;100550.19;10383966;28;20040;-74
2022/04/22 18:07:48;;;;;;;5.95;4.30;;;;;;;15.42;54.99;100568.59;10347978;28;20484;-75
2022/04/22 18:12:49;;;;;;;4.90;3.97;;;;;;;15.16;56.62;100545.34;10381439;28;20034;-74
2022/04/22 18:17:50;;;;;;;5.75;4.18;;;;;;;14.94;56.39;100553.28;10362326;28;20041;-74
2022/04/22 18:22:52;;;;;;;8.27;4.47;;;;;;;14.80;57.02;100545.28;10379472;28;20570;-74
2022/04/22 18:27:52;;;;;;;5.40;4.35;;;;;;;14.73;57.60;100554.66;10345136;28;20125;-75
2022/04/22 18:32:53;;;;;;;5.63;3.63;;;;;;;14.54;57.79;100553.88;10377753;28;20121;-74
2022/04/22 18:37:53;;;;;;;6.18;5.13;;;;;;;14.45;58.61;100560.69;10377423;28;20537;-75
2022/04/22 18:42:54;;;;;;;4.63;4.22;;;;;;;14.28;59.59;100557.78;10378380;28;20076;-74
2022/04/22 18:47:55;;;;;;;6.00;4.60;;;;;;;14.16;60.35;100566.72;10400588;28;20033;-74
2022/04/22 18:52:55;;;;;;;6.28;5.78;;;;;;;14.04;60.69;100557.69;10389340;28;20484;-75
2022/04/22 18:57:56;;;;;;;6.57;5.55;;;;;;;13.96;61.57;100560.69;10393523;28;20044;-76
2022/04/22 19:03:10;;;;;;;5.18;4.68;;;;;;;13.81;62.45;100566.53;10392694;28;20061;-75
2022/04/22 19:08:12;;;;;;;7.47;5.70;;;;;;;13.68;63.75;100564.78;10387096;28;20046;-75
2022/04/22 19:13:12;;;;;;;8.68;5.63;;;;;;;13.67;63.88;100567.75;10395457;28;20026;-75
2022/04/22 19:18:12;;;;;;;6.18;5.57;;;;;;;13.56;64.53;100574.78;10380278;28;20116;-75
2022/04/22 19:23:14;;;;;;;14.68;6.47;;;;;;;13.38;66.30;100566.59;10383084;28;20112;-76
2022/04/22 19:28:14;;;;;;;7.25;5.25;;;;;;;13.28;66.55;100569.81;10379479;28;20045;-76
2022/04/22 19:33:15;;;;;;;15.10;6.55;;;;;;;13.35;65.96;100578.72;10337088;28;20034;-75
2022/04/22 19:43:34;;;;;;;9.82;6.18;;;;;;;13.38;64.84;100567.41;10388972;28;20042;-75
2022/04/22 19:48:35;;;;;;;7.00;6.07;;;;;;;13.39;65.20;100574.50;10383573;28;20470;-75
2022/04/22 19:53:35;;;;;;;8.35;6.65;;;;;;;13.36;65.44;100585.00;10383116;28;20402;-74
2022/04/22 19:58:36;;;;;;;7.32;6.63;;;;;;;13.25;65.99;100581.13;10383402;28;20109;-75
2022/04/22 20:03:36;;;;;;;8.88;7.70;;;;;;;13.17;66.55;100584.91;10384178;28;20030;-74
2022/04/22 20:08:36;;;;;;;16.48;7.10;;;;;;;13.16;66.85;100582.44;10382185;28;20430;-74
2022/04/22 20:13:37;;;;;;;7.95;6.53;;;;;;;13.04;67.44;100587.75;10394442;28;20034;-75
2022/04/22 20:18:37;;;;;;;9.02;6.70;;;;;;;12.97;68.01;100590.53;10394106;28;20038;-75
2022/04/22 20:23:38;;;;;;;8.50;6.35;;;;;;;12.90;68.48;100591.63;10384987;28;20426;-74
2022/04/22 20:28:38;;;;;;;12.38;6.80;;;;;;;12.86;68.82;100593.09;10405186;28;20049;-75
2022/04/22 20:33:38;;;;;;;16.63;8.23;;;;;;;12.78;69.56;100600.47;10391018;28;20029;-74
2022/04/22 20:43:58;;;;;;;8.18;6.95;;;;;;;12.64;70.70;100593.47;10389294;28;20490;-74
2022/04/22 20:48:58;;;;;;;10.85;6.43;;;;;;;12.61;70.83;100596.63;10399496;28;20061;-75
2022/04/22 20:54:01;;;;;;;19.90;8.95;;;;;;;12.48;71.31;100599.44;10402250;28;20073;-75
2022/04/22 20:59:01;;;;;;;8.48;6.65;;;;;;;12.47;70.92;100600.47;10374817;28;20062;-75
2022/04/22 21:04:01;;;;;;;10.73;8.10;;;;;;;12.42;71.79;100598.41;10384676;28;20029;-74
2022/04/22 21:09:04;;;;;;;22.20;7.88;;;;;;;12.34;72.39;100610.34;10382141;28;20030;-74
2022/04/22 21:14:05;;;;;;;11.35;8.23;;;;;;;12.39;72.62;100603.44;10365923;28;20044;-74
2022/04/22 21:19:06;;;;;;;7.45;6.75;;;;;;;12.43;72.28;100601.94;10386487;28;20030;-74
2022/04/22 21:24:06;;;;;;;11.07;9.15;;;;;;;12.44;72.44;100612.59;10386025;28;20389;-75
2022/04/22 21:29:07;;;;;;;12.50;7.63;;;;;;;12.41;72.78;100614.91;10386158;28;20061;-75
2022/04/22 21:34:07;;;;;;;7.95;6.97;;;;;;;12.39;72.77;100623.28;10388856;28;20037;-75
2022/04/22 21:39:07;;;;;;;7.70;6.90;;;;;;;12.49;72.17;100620.09;10372187;28;20066;-74
2022/04/22 21:44:08;;;;;;;10.38;9.15;;;;;;;12.54;71.99;100620.28;10392270;28;20489;-75
2022/04/22 21:49:08;;;;;;;9.82;8.25;;;;;;;12.56;72.26;100620.88;10384056;28;20041;-74
2022/04/22 21:54:08;;;;;;;7.00;6.43;;;;;;;12.53;72.71;100615.88;10381276;28;20093;-74
2022/04/22 21:59:09;;;;;;;8.48;6.93;;;;;;;12.53;72.51;100615.88;10380863;28;20493;-75
2022/04/22 22:04:09;;;;;;;8.85;7.43;;;;;;;12.47;72.90;100612.16;10380593;28;20125;-74
2022/04/22 22:09:10;;;;;;;8.55;7.55;;;;;;;12.39;73.32;100612.41;10381354;28;20038;-74
2022/04/22 22:14:10;;;;;;;9.48;8.38;;;;;;;12.28;73.92;100622.09;10378936;28;20433;-74
2022/04/22 22:19:11;;;;;;;15.27;7.97;;;;;;;12.24;74.51;100612.69;10362573;28;20125;-74
2022/04/22 22:24:12;;;;;;;12.63;8.90;;;;;;;12.19;74.55;100607.09;10380149;28;20037;-74
2022/04/22 22:29:12;;;;;;;10.02;7.72;;;;;;;12.10;75.15;100611.09;10379724;28;20076;-74
2022/04/22 22:34:12;;;;;;;9.02;8.00;;;;;;;12.01;75.94;100613.19;10379217;28;20363;-75
2022/04/22 22:39:13;;;;;;;10.02;9.00;;;;;;;11.87;77.13;100603.44;10378857;28;20065;-75
2022/04/22 22:44:14;;;;;;;13.40;9.27;;;;;;;11.71;77.61;100603.84;10378966;28;20462;-74
2022/04/22 22:49:14;;;;;;;9.38;8.38;;;;;;;11.63;77.20;100610.34;10379012;28;20089;-73
2022/04/22 22:54:14;;;;;;;8.52;7.70;;;;;;;11.40;78.65;100603.50;10393897;28;20030;-74
2022/04/22 22:59:15;;;;;;;14.65;8.13;;;;;;;11.35;79.55;100602.44;10379578;28;20536;-75
2022/04/22 23:04:15;;;;;;;7.07;6.35;;;;;;;11.32;79.27;100595.56;10395703;28;20033;-74
2022/04/22 23:09:16;;;;;;;11.77;8.27;;;;;;;11.40;79.20;100591.81;10380199;28;20042;-74
2022/04/22 23:14:16;;;;;;;9.93;8.07;;;;;;;11.44;79.12;100603.06;10375688;28;20041;-74
2022/04/22 23:19:17;;;;;;;14.13;6.75;;;;;;;11.39;79.17;100585.56;10375639;28;20034;-75
2022/04/22 23:24:18;;;;;;;10.27;7.90;;;;;;;11.34;79.92;100595.38;10375980;28;20458;-74
2022/04/22 23:29:18;;;;;;;10.23;6.70;;;;;;;11.26;80.07;100587.44;10376127;28;20050;-75
2022/04/22 23:34:19;;;;;;;10.23;6.40;;;;;;;11.17;80.31;100586.84;10376884;28;20125;-74
2022/04/22 23:39:19;;;;;;;6.53;5.35;;;;;;;11.21;81.18;100589.97;10378504;28;20069;-74
2022/04/22 23:44:20;;;;;;;9.50;5.75;;;;;;;11.20;80.58;100580.16;10374840;28;20034;-74
2022/04/22 23:49:20;;;;;;;7.78;6.78;;;;;;;11.15;80.61;100578.91;10375848;28;20485;-74
2022/04/22 23:54:21;;;;;;;14.27;6.72;;;;;;;11.06;80.88;100577.44;10375740;28;20077;-74
2022/04/22 23:59:21;;;;;;;9.98;8.38;;;;;;;10.85;82.51;100581.22;10374632;28;20038;-74
